KCKM/CKM METAR and TAF weather

Enter ICAO airport designator
Station Type Date Time Source
KCKM METAR 2021/04/14 20:15 UTC NOAA

KCKM 142015Z AUTO 35008G15KT 10SM 15/13 A3008 RMK A01


Station Type Date Time Source
KCKM Decoded METAR 2021/04/14 20:15 UTC NOAA

Station name not available
Apr 14, 2021 - 04:15 PM EDT / 2021.04.14 2015 UTC
Wind: from the N (350 degrees) at 9 MPH (8 KT) gusting to 17 MPH (15 KT):0
Visibility: 10 mile(s):0
Temperature: 59 F (15 C)
Dew Point: 55 F (13 C)
Relative Humidity: 87%
Pressure (altimeter): 30.08 in. Hg (1018 hPa)
ob: KCKM 142015Z AUTO 35008G15KT 10SM 15/13 A3008 RMK A01
cycle: 20

Station Type Date Time Source
KCKM TAF UTC NOAA

Error!

Example: see airport list